createdAt,value
2022-10-02T00:01:54.918Z,101220.94
2022-10-02T00:07:18.943Z,101226.97
2022-10-02T00:12:43.836Z,101221.78
2022-10-02T00:18:11.207Z,101228.91
2022-10-02T00:23:38.445Z,101234.69
2022-10-02T00:29:09.337Z,101238.13
2022-10-02T00:34:37.107Z,101252.00
2022-10-02T00:40:04.900Z,101252.50
2022-10-02T00:45:41.921Z,101252.41
2022-10-02T00:51:11.594Z,101256.13
2022-10-02T00:56:37.445Z,101257.88
2022-10-02T01:02:07.033Z,101251.56
2022-10-02T01:07:30.266Z,101252.34
2022-10-02T01:12:53.730Z,101266.47
2022-10-02T01:18:18.379Z,101272.19
2022-10-02T01:23:48.906Z,101273.16
2022-10-02T01:29:13.394Z,101271.88
2022-10-02T01:34:36.745Z,101272.19
2022-10-02T01:40:01.450Z,101271.94
2022-10-02T01:45:34.322Z,101277.38
2022-10-02T01:51:09.169Z,101297.09
2022-10-02T01:56:37.767Z,101304.28
2022-10-02T02:02:09.565Z,101299.69
2022-10-02T02:07:35.766Z,101297.09
2022-10-02T02:13:02.139Z,101292.47
2022-10-02T02:18:30.322Z,101294.25
2022-10-02T02:23:54.096Z,101289.09
2022-10-02T02:29:18.136Z,101308.75
2022-10-02T02:34:46.523Z,101301.19
2022-10-02T02:40:13.158Z,101311.34
2022-10-02T02:45:38.816Z,101310.31
2022-10-02T02:51:05.927Z,101320.25
2022-10-02T02:56:30.850Z,101316.91
2022-10-02T03:01:53.986Z,101317.66
2022-10-02T03:07:18.791Z,101313.38
2022-10-02T03:12:51.454Z,101323.38
2022-10-02T03:18:24.234Z,101320.50
2022-10-02T03:23:57.601Z,101322.72
2022-10-02T03:29:26.638Z,101334.41
2022-10-02T03:34:50.156Z,101332.56
2022-10-02T03:40:14.857Z,101338.56
2022-10-02T03:45:50.881Z,101345.50
2022-10-02T03:51:14.862Z,101345.56
2022-10-02T03:56:42.415Z,101346.91
2022-10-02T04:02:09.200Z,101353.81
2022-10-02T04:07:35.453Z,101362.56
2022-10-02T04:13:04.018Z,101367.31
2022-10-02T04:18:31.455Z,101363.09
2022-10-02T04:23:57.489Z,101367.16
2022-10-02T04:29:25.711Z,101351.19
2022-10-02T04:34:48.850Z,101364.28
2022-10-02T04:40:20.378Z,101368.63
2022-10-02T04:45:57.003Z,101366.84
2022-10-02T04:51:34.257Z,101356.56
2022-10-02T04:57:07.675Z,101374.91
2022-10-02T05:02:39.939Z,101374.03
2022-10-02T05:08:15.871Z,101373.44
2022-10-02T05:13:52.215Z,101375.91
2022-10-02T05:19:43.349Z,101384.69
2022-10-02T05:25:16.373Z,101387.44
2022-10-02T05:30:47.086Z,101382.63
2022-10-02T05:36:21.519Z,101398.66
2022-10-02T05:41:50.302Z,101425.28
2022-10-02T05:47:18.051Z,101428.56
2022-10-02T05:52:47.572Z,101435.72
2022-10-02T05:58:15.094Z,101444.63
2022-10-02T06:03:45.577Z,101445.19
2022-10-02T06:09:20.903Z,101451.34
2022-10-02T06:14:50.815Z,101450.34
2022-10-02T06:20:19.259Z,101462.94
2022-10-02T06:25:46.910Z,101470.53
2022-10-02T06:31:12.522Z,101467.28
2022-10-02T06:37:15.603Z,101472.44
2022-10-02T06:42:48.220Z,101479.72
2022-10-02T06:48:19.099Z,101500.09
2022-10-02T06:54:01.659Z,101511.97
2022-10-02T06:59:41.096Z,101511.78
2022-10-02T07:05:26.595Z,101520.31
2022-10-02T07:10:57.915Z,101519.25
2022-10-02T07:16:39.942Z,101534.13
2022-10-02T07:22:32.712Z,101533.78
2022-10-02T07:28:05.901Z,101538.06
2022-10-02T07:33:48.618Z,101542.53
2022-10-02T07:39:20.404Z,101533.41
2022-10-02T07:44:54.062Z,101542.75
2022-10-02T07:50:24.034Z,101548.91
2022-10-02T07:55:52.562Z,101544.06
2022-10-02T08:01:19.279Z,101558.34
2022-10-02T08:06:45.046Z,101564.16
2022-10-02T08:12:28.138Z,101567.31
2022-10-02T08:17:54.965Z,101577.47
2022-10-02T08:23:23.825Z,101566.81
2022-10-02T08:28:51.781Z,101594.78
2022-10-02T08:34:19.584Z,101585.66
2022-10-02T08:40:12.250Z,101602.03
2022-10-02T08:46:06.216Z,101617.28
2022-10-02T08:52:05.498Z,101618.84
2022-10-02T08:57:47.101Z,101631.41
2022-10-02T09:03:36.513Z,101637.34
2022-10-02T09:09:26.752Z,101648.47
2022-10-02T09:14:56.836Z,101646.41
2022-10-02T09:20:41.439Z,101646.28
2022-10-02T09:26:13.845Z,101647.69
2022-10-02T09:32:04.088Z,101645.47
2022-10-02T09:37:52.798Z,101656.31
2022-10-02T09:44:03.515Z,101669.25
2022-10-02T09:49:48.061Z,101681.47
2022-10-02T09:55:52.815Z,101697.66
2022-10-02T10:01:31.183Z,101694.66
2022-10-02T10:07:27.350Z,101689.91
2022-10-02T10:13:18.069Z,101705.13
2022-10-02T10:19:22.217Z,101716.97
2022-10-02T10:25:30.053Z,101720.78
2022-10-02T10:31:39.103Z,101727.88
2022-10-02T10:37:21.639Z,101722.91
2022-10-02T10:43:24.916Z,101736.91
2022-10-02T10:49:06.939Z,101737.03
2022-10-02T10:54:58.144Z,101751.78
2022-10-02T11:00:22.504Z,101758.13
2022-10-02T11:06:17.276Z,101778.09
2022-10-02T11:11:55.371Z,101777.34
2022-10-02T11:17:50.031Z,101776.88
2022-10-02T11:23:44.573Z,101780.38
2022-10-02T11:29:47.646Z,101793.31
2022-10-02T11:35:23.294Z,101798.53
2022-10-02T11:41:15.733Z,101798.56
2022-10-02T11:47:04.677Z,101792.84
2022-10-02T11:52:45.963Z,101808.56
2022-10-02T11:58:25.928Z,101805.78
2022-10-02T12:03:59.137Z,101808.88
2022-10-02T12:09:32.184Z,101816.75
2022-10-02T12:15:01.407Z,101810.97
2022-10-02T12:20:50.039Z,101820.34
2022-10-02T12:26:48.515Z,101831.91
2022-10-02T12:32:23.175Z,101835.69
2022-10-02T12:37:56.004Z,101838.50
2022-10-02T12:43:55.469Z,101845.09
2022-10-02T12:49:33.985Z,101852.69
2022-10-02T12:55:29.372Z,101848.88
2022-10-02T13:01:15.624Z,101866.25
2022-10-02T13:07:06.485Z,101881.16
2022-10-02T13:12:39.585Z,101873.09
2022-10-02T13:18:13.429Z,101880.72
2022-10-02T13:23:42.554Z,101876.91
2022-10-02T13:29:19.310Z,101884.00
2022-10-02T13:34:54.272Z,101886.09
2022-10-02T13:40:22.883Z,101882.91
2022-10-02T13:45:50.781Z,101887.44
2022-10-02T13:51:25.054Z,101895.59
2022-10-02T13:56:56.935Z,101900.84
2022-10-02T14:02:31.967Z,101903.44
2022-10-02T14:08:08.762Z,101904.72
2022-10-02T14:13:45.406Z,101915.19
2022-10-02T14:19:20.082Z,101919.91
2022-10-02T14:25:04.154Z,101937.25
2022-10-02T14:30:32.909Z,101943.94
2022-10-02T14:36:01.621Z,101955.66
2022-10-02T14:41:36.347Z,101955.91
2022-10-02T14:47:15.550Z,101959.91
2022-10-02T14:53:01.032Z,101958.84
2022-10-02T14:58:34.387Z,101969.16
2022-10-02T15:04:11.088Z,101968.75
2022-10-02T15:09:41.473Z,101967.84
2022-10-02T15:15:10.066Z,101984.59
2022-10-02T15:20:50.612Z,101982.34
2022-10-02T15:26:31.594Z,101997.94
2022-10-02T15:32:20.128Z,102006.69
2022-10-02T15:37:49.845Z,102012.72
2022-10-02T15:43:29.052Z,102022.41
2022-10-02T15:48:59.985Z,102032.81
2022-10-02T15:54:32.639Z,102043.63
2022-10-02T16:00:06.452Z,102038.31
2022-10-02T16:05:55.121Z,102049.25
2022-10-02T16:11:41.446Z,102057.16
2022-10-02T16:17:20.220Z,102069.81
2022-10-02T16:23:00.360Z,102088.69
2022-10-02T16:28:36.648Z,102095.50
2022-10-02T16:34:05.345Z,102102.28
2022-10-02T16:39:53.202Z,102118.91
2022-10-02T16:45:34.363Z,102128.13
2022-10-02T16:51:29.241Z,102131.78
2022-10-02T16:56:55.190Z,102148.66
2022-10-02T17:02:24.065Z,102147.69
2022-10-02T17:07:54.391Z,102154.00
2022-10-02T17:13:26.834Z,102157.56
2022-10-02T17:18:56.445Z,102178.69
2022-10-02T17:24:34.351Z,102189.38
2022-10-02T17:30:00.514Z,102190.16
2022-10-02T17:35:39.974Z,102200.81
2022-10-02T17:41:12.909Z,102208.19
2022-10-02T17:46:50.763Z,102217.91
2022-10-02T17:52:42.609Z,102216.94
2022-10-02T17:58:12.628Z,102227.59
2022-10-02T18:03:53.340Z,102234.59
2022-10-02T18:09:47.539Z,102243.53
2022-10-02T18:15:25.314Z,102255.22
2022-10-02T18:20:57.105Z,102251.56
2022-10-02T18:26:29.403Z,102254.16
2022-10-02T18:32:07.818Z,102253.25
2022-10-02T18:37:51.217Z,102264.72
2022-10-02T18:43:42.583Z,102269.97
2022-10-02T18:49:26.729Z,102265.75
2022-10-02T18:55:04.151Z,102275.38
2022-10-02T19:00:50.389Z,102282.41
2022-10-02T19:06:16.516Z,102300.06
2022-10-02T19:11:44.631Z,102301.16
2022-10-02T19:17:14.148Z,102315.19
2022-10-02T19:22:38.498Z,102316.22
2022-10-02T19:28:02.971Z,102324.91
2022-10-02T19:33:33.642Z,102336.38
2022-10-02T19:38:59.390Z,102333.00
2022-10-02T19:44:28.779Z,102333.06
2022-10-02T19:49:56.599Z,102337.47
2022-10-02T19:55:23.952Z,102344.56
2022-10-02T20:00:47.342Z,102341.09
2022-10-02T20:06:14.092Z,102343.78
2022-10-02T20:11:41.472Z,102359.63
2022-10-02T20:17:10.611Z,102358.91
2022-10-02T20:22:36.369Z,102358.94
2022-10-02T20:28:03.705Z,102374.63
2022-10-02T20:33:31.130Z,102375.56
2022-10-02T20:39:00.025Z,102386.13
2022-10-02T20:44:23.186Z,102395.00
2022-10-02T20:50:04.771Z,102401.13
2022-10-02T20:55:34.846Z,102411.72
2022-10-02T21:01:13.392Z,102421.38
2022-10-02T21:06:53.724Z,102435.41
2022-10-02T21:12:44.423Z,102424.94
2022-10-02T21:18:30.998Z,102431.91
2022-10-02T21:24:15.923Z,102434.56
2022-10-02T21:30:03.184Z,102449.41
2022-10-02T21:35:54.150Z,102457.31
2022-10-02T21:41:39.081Z,102451.31
2022-10-02T21:47:37.299Z,102467.00
2022-10-02T21:53:22.039Z,102473.94
2022-10-02T21:59:06.070Z,102476.56
2022-10-02T22:04:56.889Z,102471.31
2022-10-02T22:10:26.529Z,102473.97
2022-10-02T22:15:56.014Z,102479.19
2022-10-02T22:21:36.551Z,102473.03
2022-10-02T22:27:16.875Z,102477.44
2022-10-02T22:33:14.097Z,102468.72
2022-10-02T22:38:40.519Z,102480.09
2022-10-02T22:44:06.273Z,102480.31
2022-10-02T22:49:33.473Z,102478.66
2022-10-02T22:55:03.058Z,102484.81
2022-10-02T23:00:28.444Z,102493.53
2022-10-02T23:05:54.404Z,102498.84
2022-10-02T23:11:22.996Z,102507.59
2022-10-02T23:16:49.321Z,102476.25
2022-10-02T23:22:19.511Z,102506.75
2022-10-02T23:27:58.747Z,102518.09
2022-10-02T23:33:24.986Z,102519.00
2022-10-02T23:38:52.423Z,102522.47
2022-10-02T23:44:27.883Z,102520.75
2022-10-02T23:49:53.387Z,102510.28
2022-10-02T23:55:23.890Z,102506.78
